Time;durP1;ratioP1;P1;durP2;ratioP2;P2;SDS_P1;SDS_P2;PMS_P1;PMS_P2;Temp;Humidity;BMP_temperature;BMP_pressure;BME280_temperature;BME280_humidity;BME280_pressure;Samples;Min_cycle;Max_cycle;Signal;HPM_P1;HPM_P2
2021/11/24 10:05:36;;;;;;;;;;;;;;;2.90;100.00;100095.22;1775254;80;20114;-68
2021/11/24 10:08:05;;;;;;;;;;;;;;;2.87;100.00;100092.44;1747788;82;20107;-66
2021/11/24 10:10:33;;;;;;;;;;;;;;;3.00;100.00;100102.34;1741979;82;20099;-66
2021/11/24 10:13:02;;;;;;;;;;;;;;;2.98;100.00;100100.38;1747537;80;20425;-67
2021/11/24 10:15:42;;;;;;;;;;;;;;;3.02;100.00;100101.65;1747547;82;20099;-67
2021/11/24 10:18:15;;;;;;;;;;;;;;;3.12;100.00;100101.32;1747635;82;20118;-67
2021/11/24 10:20:54;;;;;;;;;;;;;;;3.18;100.00;100098.70;1743510;81;20112;-68
2021/11/24 10:23:39;;;;;;;;;;;;;;;3.11;100.00;100093.88;1729897;82;21144;-69
2021/11/24 10:26:32;;;;;;;;;;;;;;;3.13;100.00;100101.11;1732219;81;20154;-68
2021/11/24 10:29:06;;;;;;;;;;;;;;;3.14;100.00;100099.30;1720655;82;20100;-70
2021/11/24 10:31:41;;;;;;;;;;;;;;;3.27;100.00;100105.21;1675089;85;20120;-69
2021/11/24 10:34:26;;;;;;;;;;;;;;;3.32;100.00;100096.16;1682584;84;20689;-69
2021/11/24 10:37:05;;;;;;;;;;;;;;;3.24;100.00;100099.78;1681678;85;21145;-69
2021/11/24 10:39:41;;;;;;;;;;;;;;;3.31;100.00;100102.50;1672925;85;20409;-69
2021/11/24 10:42:16;;;;;;;;;;;;;;;3.32;100.00;100108.11;1709532;82;20101;-69
2021/11/24 10:44:48;;;;;;;;;;;;;;;3.28;100.00;100089.59;1681119;84;20095;-68
2021/11/24 10:47:15;;;;;;;;;;;;;;;3.36;100.00;100094.27;1648490;86;20098;-68
2021/11/24 10:49:51;;;;;;;;;;;;;;;3.30;100.00;100076.96;1693509;84;21121;-68
2021/11/24 10:52:37;;;;;;;;;;;;;;;3.34;100.00;100087.52;1702396;84;20137;-67
2021/11/24 10:55:11;;;;;;;;;;;;;;;3.39;100.00;100080.60;1726711;81;20107;-68
2021/11/24 10:57:41;;;;;;;;;;;;;;;3.39;100.00;100083.77;1720539;83;20153;-68
2021/11/24 11:00:16;;;;;;;;;;;;;;;3.42;100.00;100082.86;1716134;82;20170;-69
2021/11/24 11:02:44;;;;;;;;;;;;;;;3.36;100.00;100079.67;1722072;82;21718;-69
2021/11/24 11:05:13;;;;;;;;;;;;;;;3.41;100.00;100077.77;1731939;81;20421;-68
2021/11/24 11:07:53;;;;;;;;;;;;;;;3.41;100.00;100081.23;1741283;81;20093;-68
2021/11/24 11:10:26;;;;;;;;;;;;;;;3.37;100.00;100073.33;1744783;82;20532;-69
2021/11/24 11:12:59;;;;;;;;;;;;;;;3.36;100.00;100072.22;1744146;80;20081;-68
2021/11/24 11:15:38;;;;;;;;;;;;;;;3.33;100.00;100067.28;1744745;82;21055;-68
2021/11/24 11:18:12;;;;;;;;;;;;;;;3.36;100.00;100063.75;1744722;82;20508;-68
2021/11/24 11:20:42;;;;;;;;;;;;;;;3.36;100.00;100070.38;1744802;81;20395;-68
2021/11/24 11:23:13;;;;;;;;;;;;;;;3.24;100.00;100064.48;1744895;81;20384;-68
2021/11/24 11:25:43;;;;;;;;;;;;;;;3.27;100.00;100072.05;1744754;81;20108;-65
2021/11/24 11:28:10;;;;;;;;;;;;;;;3.23;100.00;100060.98;1744476;78;21112;-65
2021/11/24 11:30:43;;;;;;;;;;;;;;;3.22;100.00;100060.17;1744130;82;20097;-65
2021/11/24 11:33:13;;;;;;;;;;;;;;;3.25;100.00;100065.59;1722353;82;20109;-66
2021/11/24 11:35:42;;;;;;;;;;;;;;;3.27;100.00;100062.77;1744700;82;20076;-67
2021/11/24 11:38:09;;;;;;;;;;;;;;;3.21;100.00;100063.85;1744672;82;20399;-67
2021/11/24 11:40:37;;;;;;;;;;;;;;;3.14;100.00;100060.84;1744572;82;21121;-67
2021/11/24 11:43:04;;;;;;;;;;;;;;;3.14;100.00;100055.53;1744546;82;20097;-66
2021/11/24 11:45:31;;;;;;;;;;;;;;;3.12;100.00;100060.20;1721870;82;20124;-66
2021/11/24 11:48:01;;;;;;;;;;;;;;;3.13;100.00;100052.55;1744268;81;20318;-66
2021/11/24 11:50:58;;;;;;;;;;;;;;;3.12;100.00;100053.58;1744645;79;20173;-65
2021/11/24 11:53:30;;;;;;;;;;;;;;;3.14;100.00;100058.19;1744615;81;21104;-64
2021/11/24 11:56:13;;;;;;;;;;;;;;;3.15;100.00;100055.84;1744589;82;20121;-66
2021/11/24 11:58:57;;;;;;;;;;;;;;;3.17;100.00;100047.19;1744848;81;20323;-66
2021/11/24 12:01:42;;;;;;;;;;;;;;;3.09;100.00;100048.66;1744841;81;20136;-67
2021/11/24 12:04:21;;;;;;;;;;;;;;;3.15;100.00;100047.36;1742319;82;20165;-67
2021/11/24 12:06:52;;;;;;;;;;;;;;;3.16;100.00;100042.88;1744460;81;21016;-65
2021/11/24 12:09:38;;;;;;;;;;;;;;;3.22;100.00;100053.54;1744909;81;20371;-63
2021/11/24 12:12:09;;;;;;;;;;;;;;;3.26;100.00;100038.55;1744695;81;20114;-63
2021/11/24 12:14:45;;;;;;;;;;;;;;;3.20;100.00;100043.63;1744701;82;20075;-64
2021/11/24 12:17:33;;;;;;;;;;;;;;;3.17;100.00;100033.92;1744859;82;20089;-65
2021/11/24 12:20:16;;;;;;;;;;;;;;;3.25;100.00;100042.23;1744812;82;21085;-64
2021/11/24 12:25:32;;;;;;;;;;;;;;;3.22;100.00;100042.11;1744933;81;20387;-65
2021/11/24 12:28:06;;;;;;;;;;;;;;;3.19;100.00;100030.06;1743844;80;20201;-65
2021/11/24 12:33:14;;;;;;;;;;;;;;;3.16;100.00;100034.91;1744703;82;21123;-63
2021/11/24 12:35:50;;;;;;;;;;;;;;;3.16;100.00;100031.78;1744771;82;20597;-63
2021/11/24 12:38:19;;;;;;;;;;;;;;;3.18;100.00;100030.23;1733272;79;20073;-65
2021/11/24 12:40:47;;;;;;;;;;;;;;;3.13;100.00;100030.81;1744750;82;20132;-64
2021/11/24 12:43:16;;;;;;;;;;;;;;;3.12;100.00;100035.01;1744780;82;20128;-63
2021/11/24 12:46:10;;;;;;;;;;;;;;;3.16;100.00;100031.78;1744681;82;21090;-64
2021/11/24 12:48:44;;;;;;;;;;;;;;;3.07;100.00;100035.58;1744672;81;20387;-64
2021/11/24 12:51:27;;;;;;;;;;;;;;;3.07;100.00;100034.25;1744862;82;20081;-64
2021/11/24 12:54:02;;;;;;;;;;;;;;;3.07;100.00;100031.61;1744799;82;20085;-63
2021/11/24 12:56:31;;;;;;;;;;;;;;;3.02;100.00;100029.23;1749210;79;20136;-63
2021/11/24 12:59:03;;;;;;;;;;;;;;;2.98;100.00;100028.77;1770786;80;21176;-63
2021/11/24 13:01:36;;;;;;;;;;;;;;;3.04;100.00;100031.16;1772056;80;20116;-64
2021/11/24 13:04:09;;;;;;;;;;;;;;;2.99;100.00;100037.06;1772181;81;20117;-63
2021/11/24 13:06:41;;;;;;;;;;;;;;;2.98;100.00;100030.09;1772292;80;20093;-64
2021/11/24 13:09:22;;;;;;;;;;;;;;;2.95;100.00;100035.80;1788355;80;20132;-66
2021/11/24 13:12:02;;;;;;;;;;;;;;;2.95;100.00;100037.13;1788377;79;21149;-66
2021/11/24 13:14:37;;;;;;;;;;;;;;;2.97;100.00;100049.69;1788281;79;20068;-68
2021/11/24 13:17:11;;;;;;;;;;;;;;;2.94;100.00;100045.59;1790190;79;20115;-69
2021/11/24 13:19:40;;;;;;;;;;;;;;;2.93;100.00;100042.61;1790022;80;20088;-66
2021/11/24 13:22:10;;;;;;;;;;;;;;;2.92;100.00;100045.47;1791390;78;20096;-66
2021/11/24 13:24:37;;;;;;;;;;;;;;;2.90;100.00;100047.48;1811628;79;21132;-65
2021/11/24 13:27:04;;;;;;;;;;;;;;;2.88;100.00;100047.66;1811633;79;20114;-66
2021/11/24 13:29:34;;;;;;;;;;;;;;;2.89;100.00;100038.72;1811702;79;20392;-64
2021/11/24 13:32:08;;;;;;;;;;;;;;;2.86;100.00;100043.56;1811394;79;20121;-66
2021/11/24 13:34:35;;;;;;;;;;;;;;;2.85;100.00;100052.03;1811630;79;20391;-66
2021/11/24 13:37:03;;;;;;;;;;;;;;;2.86;100.00;100056.83;1811751;79;21772;-67
2021/11/24 13:39:30;;;;;;;;;;;;;;;2.79;100.00;100053.63;1811508;79;20075;-66
2021/11/24 13:42:12;;;;;;;;;;;;;;;2.81;100.00;100049.95;1811735;79;20379;-67
2021/11/24 13:44:56;;;;;;;;;;;;;;;2.79;100.00;100048.33;1811515;79;20137;-65
2021/11/24 13:47:28;;;;;;;;;;;;;;;2.75;100.00;100048.89;1811811;79;20102;-67
2021/11/24 13:49:57;;;;;;;;;;;;;;;2.76;100.00;100046.55;1811739;79;21692;-67
2021/11/24 13:52:27;;;;;;;;;;;;;;;2.74;100.00;100052.53;1795948;79;20104;-67
2021/11/24 13:54:55;;;;;;;;;;;;;;;2.70;100.00;100042.83;1788335;80;20140;-66
2021/11/24 13:57:24;;;;;;;;;;;;;;;2.67;100.00;100037.08;1788412;80;20085;-66
2021/11/24 13:59:59;;;;;;;;;;;;;;;2.65;100.00;100033.31;1788455;80;20140;-66
2021/11/24 14:02:26;;;;;;;;;;;;;;;2.65;100.00;100028.01;1788400;80;21748;-65
2021/11/24 14:04:56;;;;;;;;;;;;;;;2.65;100.00;100033.31;1788481;80;20077;-65
2021/11/24 14:07:27;;;;;;;;;;;;;;;2.65;100.00;100037.28;1784820;79;20117;-65
2021/11/24 14:09:56;;;;;;;;;;;;;;;2.61;100.00;100037.34;1771039;79;20117;-65
2021/11/24 14:12:27;;;;;;;;;;;;;;;2.61;100.00;100036.02;1772346;79;20113;-65
2021/11/24 14:15:19;;;;;;;;;;;;;;;2.60;100.00;100033.55;1772099;81;21141;-65
2021/11/24 14:18:00;;;;;;;;;;;;;;;2.56;100.00;100037.09;1772407;81;20136;-66
2021/11/24 14:20:35;;;;;;;;;;;;;;;2.55;100.00;100034.14;1772994;80;20085;-63
2021/11/24 14:23:06;;;;;;;;;;;;;;;2.52;100.00;100031.84;1794667;80;20156;-63
2021/11/24 14:25:41;;;;;;;;;;;;;;;2.50;100.00;100028.08;1760251;80;20117;-65
2021/11/24 14:28:17;;;;;;;;;;;;;;;2.53;100.00;100036.15;1772553;81;21723;-65
2021/11/24 14:30:45;;;;;;;;;;;;;;;2.52;100.00;100037.14;1772503;81;20077;-65
2021/11/24 14:33:13;;;;;;;;;;;;;;;2.51;100.00;100025.73;1771967;80;20089;-64
2021/11/24 14:35:40;;;;;;;;;;;;;;;2.52;100.00;100029.19;1772072;80;20084;-67
2021/11/24 14:38:07;;;;;;;;;;;;;;;2.48;100.00;100030.09;1772257;81;20124;-63
2021/11/24 14:40:35;;;;;;;;;;;;;;;2.48;100.00;100027.95;1772316;81;21121;-65
2021/11/24 14:43:03;;;;;;;;;;;;;;;2.46;100.00;100019.37;1772147;80;20093;-64
2021/11/24 14:45:32;;;;;;;;;;;;;;;2.44;100.00;100028.00;1772230;80;20128;-65
2021/11/24 14:48:00;;;;;;;;;;;;;;;2.41;100.00;100025.23;1772159;81;20093;-66
2021/11/24 14:50:27;;;;;;;;;;;;;;;2.41;100.00;100025.74;1771781;81;20136;-64
2021/11/24 14:52:55;;;;;;;;;;;;;;;2.42;100.00;100032.16;1772018;81;21133;-65
2021/11/24 14:55:21;;;;;;;;;;;;;;;2.42;100.00;100032.16;1771911;81;20116;-64
2021/11/24 14:57:48;;;;;;;;;;;;;;;2.39;100.00;100026.42;1772070;81;20104;-64
2021/11/24 15:00:21;;;;;;;;;;;;;;;2.39;100.00;100037.84;1785952;80;20076;-64
2021/11/24 15:02:48;;;;;;;;;;;;;;;2.38;100.00;100032.23;1793880;79;20091;-64
2021/11/24 15:05:17;;;;;;;;;;;;;;;2.40;100.00;100039.98;1778766;80;21182;-63
2021/11/24 15:07:48;;;;;;;;;;;;;;;2.36;100.00;100036.90;1771994;79;20137;-64
2021/11/24 15:10:16;;;;;;;;;;;;;;;2.35;100.00;100034.76;1772080;81;20439;-64
2021/11/24 15:12:43;;;;;;;;;;;;;;;2.38;100.00;100032.72;1772132;79;20116;-65
2021/11/24 15:15:10;;;;;;;;;;;;;;;2.35;100.00;100040.06;1772211;80;20133;-64
2021/11/24 15:17:37;;;;;;;;;;;;;;;2.35;100.00;100033.91;1772035;81;21855;-64
2021/11/24 15:20:05;;;;;;;;;;;;;;;2.35;100.00;100038.73;1767025;80;20125;-64
2021/11/24 15:22:33;;;;;;;;;;;;;;;2.35;100.00;100048.01;1742086;81;20141;-64
2021/11/24 15:24:59;;;;;;;;;;;;;;;2.33;100.00;100036.77;1762238;81;20415;-63
2021/11/24 15:27:26;;;;;;;;;;;;;;;2.32;100.00;100039.09;1762115;81;20136;-64
2021/11/24 15:29:54;;;;;;;;;;;;;;;2.33;100.00;100042.58;1768994;80;21174;-63
2021/11/24 15:32:22;;;;;;;;;;;;;;;2.31;100.00;100048.05;1773267;81;38512;-63
2021/11/24 15:34:49;;;;;;;;;;;;;;;2.30;100.00;100038.96;1773376;81;20145;-64
2021/11/24 15:37:16;;;;;;;;;;;;;;;2.29;100.00;100046.61;1773433;81;20179;-64
2021/11/24 15:39:44;;;;;;;;;;;;;;;2.24;100.00;100040.54;1773603;81;20419;-63
2021/11/24 15:42:12;;;;;;;;;;;;;;;2.23;100.00;100038.91;1772744;80;21842;-64
2021/11/24 15:44:40;;;;;;;;;;;;;;;2.19;100.00;100045.58;1772434;81;20105;-66
2021/11/24 15:47:06;;;;;;;;;;;;;;;2.20;100.00;100044.56;1773496;81;20187;-65
2021/11/24 15:49:41;;;;;;;;;;;;;;;2.23;100.00;100046.86;1753318;81;20426;-63
2021/11/24 15:52:09;;;;;;;;;;;;;;;2.22;100.00;100053.14;1750125;81;20089;-65
2021/11/24 15:54:36;;;;;;;;;;;;;;;2.22;100.00;100052.33;1772259;80;21107;-64
2021/11/24 15:57:03;;;;;;;;;;;;;;;2.23;100.00;100044.21;1762263;80;20118;-65
2021/11/24 15:59:31;;;;;;;;;;;;;;;2.25;100.00;100051.44;1769199;81;20085;-65
2021/11/24 16:02:00;;;;;;;;;;;;;;;2.22;100.00;100043.87;1772769;80;20392;-66
2021/11/24 16:04:29;;;;;;;;;;;;;;;2.20;100.00;100050.37;1772654;80;20080;-65
2021/11/24 16:06:59;;;;;;;;;;;;;;;2.24;100.00;100049.81;1771877;80;21123;-65
2021/11/24 16:09:28;;;;;;;;;;;;;;;2.21;100.00;100048.87;1776273;80;20092;-66
2021/11/24 16:11:57;;;;;;;;;;;;;;;2.21;100.00;100044.89;1753827;79;20813;-65
2021/11/24 16:14:24;;;;;;;;;;;;;;;2.18;100.00;100043.95;1770891;79;20184;-63
2021/11/24 16:16:52;;;;;;;;;;;;;;;2.21;100.00;100047.55;1769426;79;20174;-65
2021/11/24 16:19:20;;;;;;;;;;;;;;;2.20;100.00;100046.39;1774938;80;20395;-64
2021/11/24 16:21:47;;;;;;;;;;;;;;;2.22;100.00;100057.12;1766285;80;20475;-64
2021/11/24 16:24:14;;;;;;;;;;;;;;;2.22;100.00;100052.33;1765041;80;20112;-64
2021/11/24 16:26:41;;;;;;;;;;;;;;;2.23;100.00;100055.28;1765214;79;20159;-64
2021/11/24 16:29:09;;;;;;;;;;;;;;;2.18;100.00;100045.28;1770144;80;20424;-66
2021/11/24 16:31:36;;;;;;;;;;;;;;;2.22;100.00;100059.77;1773208;79;21734;-63
2021/11/24 16:34:03;;;;;;;;;;;;;;;2.21;100.00;100063.44;1771872;80;20123;-63
2021/11/24 16:36:31;;;;;;;;;;;;;;;2.19;100.00;100069.42;1766587;80;20107;-64
2021/11/24 16:38:58;;;;;;;;;;;;;;;2.18;100.00;100066.47;1766920;80;20139;-64
2021/11/24 16:41:25;;;;;;;;;;;;;;;2.18;100.00;100066.47;1765475;80;20183;-62
2021/11/24 16:43:52;;;;;;;;;;;;;;;2.19;100.00;100070.74;1768116;80;22247;-62
2021/11/24 16:46:19;;;;;;;;;;;;;;;2.19;100.00;100073.39;1766439;80;20190;-62
2021/11/24 16:48:45;;;;;;;;;;;;;;;2.19;100.00;100068.09;1767499;80;20209;-61
2021/11/24 16:51:12;;;;;;;;;;;;;;;2.17;100.00;100070.10;1765960;80;20135;-62
2021/11/24 16:53:41;;;;;;;;;;;;;;;2.16;100.00;100063.17;1764688;80;20159;-60
2021/11/24 16:56:09;;;;;;;;;;;;;;;2.16;100.00;100065.83;1766097;79;21042;-61
2021/11/24 16:58:37;;;;;;;;;;;;;;;2.18;100.00;100065.14;1766881;80;20113;-61
2021/11/24 17:01:04;;;;;;;;;;;;;;;2.19;100.00;100068.60;1768440;80;20415;-62
2021/11/24 17:03:33;;;;;;;;;;;;;;;2.17;100.00;100060.83;1767165;80;20127;-61
2021/11/24 17:06:00;;;;;;;;;;;;;;;2.15;100.00;100062.33;1788215;79;20080;-60
2021/11/24 17:08:28;;;;;;;;;;;;;;;2.12;100.00;100052.12;1761233;80;20093;-61
2021/11/24 17:10:55;;;;;;;;;;;;;;;2.14;100.00;100058.56;1744368;81;20192;-62
2021/11/24 17:13:22;;;;;;;;;;;;;;;2.12;100.00;100060.58;1746074;81;20438;-61
2021/11/24 17:15:49;;;;;;;;;;;;;;;2.13;100.00;100063.05;1745349;81;20125;-61
2021/11/24 17:18:16;;;;;;;;;;;;;;;2.11;100.00;100057.62;1744687;81;20188;-61
2021/11/24 17:20:43;;;;;;;;;;;;;;;2.14;100.00;100059.89;1747040;81;21121;-62
2021/11/24 17:23:11;;;;;;;;;;;;;;;2.12;100.00;100061.39;1755847;80;20412;-61
2021/11/24 17:25:42;;;;;;;;;;;;;;;2.12;100.00;100057.41;1746036;81;20496;-62
2021/11/24 17:28:10;;;;;;;;;;;;;;;2.12;100.00;100060.58;1765467;80;20093;-63
2021/11/24 17:30:37;;;;;;;;;;;;;;;2.12;100.00;100060.58;1766416;80;20121;-63
2021/11/24 17:33:04;;;;;;;;;;;;;;;2.10;100.00;100062.58;1748439;81;21126;-62
2021/11/24 17:35:31;;;;;;;;;;;;;;;2.09;100.00;100065.73;1747514;81;20104;-63
2021/11/24 17:37:58;;;;;;;;;;;;;;;2.08;100.00;100058.81;1744567;81;20081;-63
2021/11/24 17:40:27;;;;;;;;;;;;;;;2.07;100.00;100052.37;1744990;80;20307;-61
2021/11/24 17:42:55;;;;;;;;;;;;;;;2.05;100.00;100057.02;1757298;81;20419;-61
2021/11/24 17:45:26;;;;;;;;;;;;;;;2.05;100.00;100050.41;1762057;81;21128;-60
2021/11/24 17:47:51;;;;;;;;;;;;;;;2.05;100.00;100046.43;1761822;81;20113;-61
2021/11/24 17:50:18;;;;;;;;;;;;;;;2.06;100.00;100052.88;1761940;81;20121;-62
2021/11/24 17:52:45;;;;;;;;;;;;;;;2.02;100.00;100047.63;1769472;81;20132;-63
2021/11/24 17:55:12;;;;;;;;;;;;;;;2.06;100.00;100056.84;1752563;81;20162;-61
2021/11/24 17:57:39;;;;;;;;;;;;;;;2.07;100.00;100043.91;1748672;80;21037;-61
2021/11/24 18:00:10;;;;;;;;;;;;;;;2.09;100.00;100051.17;1772269;81;20112;-61
2021/11/24 18:02:37;;;;;;;;;;;;;;;2.12;100.00;100046.01;1767762;80;20165;-61
2021/11/24 18:05:05;;;;;;;;;;;;;;;2.11;100.00;100049.67;1759523;81;20093;-62
2021/11/24 18:07:32;;;;;;;;;;;;;;;2.08;100.00;100050.87;1766087;80;20109;-61
2021/11/24 18:09:59;;;;;;;;;;;;;;;2.08;100.00;100044.73;1761785;80;21653;-62
2021/11/24 18:12:25;;;;;;;;;;;;;;;2.03;100.00;100037.84;1783556;79;20119;-63
2021/11/24 18:14:52;;;;;;;;;;;;;;;2.04;100.00;100036.86;1781383;80;20135;-63
2021/11/24 18:17:19;;;;;;;;;;;;;;;2.02;100.00;100040.19;1776055;80;20495;-63
2021/11/24 18:19:46;;;;;;;;;;;;;;;1.99;100.00;100043.22;1784170;79;20143;-63
2021/11/24 18:22:13;;;;;;;;;;;;;;;1.93;100.00;100036.31;1784530;79;21728;-63
2021/11/24 18:24:40;;;;;;;;;;;;;;;1.92;100.00;100049.24;1772053;79;20418;-62
2021/11/24 18:27:09;;;;;;;;;;;;;;;1.92;100.00;100046.59;1776100;80;20429;-63
2021/11/24 18:29:36;;;;;;;;;;;;;;;1.88;100.00;100047.14;1784326;80;20405;-62
2021/11/24 18:32:03;;;;;;;;;;;;;;;1.87;100.00;100048.98;1781908;80;20151;-63
2021/11/24 18:34:31;;;;;;;;;;;;;;;1.86;100.00;100044.70;1780425;80;21189;-63
2021/11/24 18:36:57;;;;;;;;;;;;;;;1.83;100.00;100038.43;1783770;80;20175;-63
2021/11/24 18:39:24;;;;;;;;;;;;;;;1.85;100.00;100032.45;1780839;80;20421;-62
2021/11/24 18:41:51;;;;;;;;;;;;;;;1.85;100.00;100039.58;1776730;80;20132;-63
2021/11/24 18:44:18;;;;;;;;;;;;;;;1.80;100.00;100030.05;1778692;80;20143;-63
2021/11/24 18:46:45;;;;;;;;;;;;;;;1.82;100.00;100028.86;1780106;80;21117;-63
2021/11/24 18:49:11;;;;;;;;;;;;;;;1.84;100.00;100027.36;1775776;80;20159;-62
2021/11/24 18:51:38;;;;;;;;;;;;;;;1.80;100.00;100026.89;1777529;80;20437;-63
2021/11/24 18:54:05;;;;;;;;;;;;;;;1.80;100.00;100040.64;1777134;80;20112;-62
2021/11/24 18:56:32;;;;;;;;;;;;;;;1.77;100.00;100043.16;1776225;80;20445;-64
2021/11/24 18:59:01;;;;;;;;;;;;;;;1.77;100.00;100029.92;1778001;80;21126;-61
2021/11/24 19:05:16;;;;;;;;;;;;;;;1.79;100.00;100031.04;1782225;80;20137;-63
2021/11/24 19:07:42;;;;;;;;;;;;;;;1.78;100.00;100023.61;1783426;80;20132;-63
2021/11/24 19:10:10;;;;;;;;;;;;;;;1.79;100.00;100029.23;1782266;80;20120;-63
2021/11/24 19:12:38;;;;;;;;;;;;;;;1.77;100.00;100025.95;1781106;79;21127;-64
2021/11/24 19:15:05;;;;;;;;;;;;;;;1.76;100.00;100022.97;1778836;79;20112;-64
2021/11/24 19:17:32;;;;;;;;;;;;;;;1.77;100.00;100027.78;1775696;80;20176;-65
2021/11/24 19:20:00;;;;;;;;;;;;;;;1.77;100.00;100025.14;1774957;80;20147;-64
2021/11/24 19:22:27;;;;;;;;;;;;;;;1.76;100.00;100021.64;1778713;79;20191;-63
2021/11/24 19:24:53;;;;;;;;;;;;;;;1.78;100.00;100024.12;1780904;80;21124;-62
2021/11/24 19:27:20;;;;;;;;;;;;;;;1.77;100.00;100025.95;1780280;79;20120;-63
2021/11/24 19:29:48;;;;;;;;;;;;;;;1.76;100.00;100017.67;1781329;80;20123;-62
2021/11/24 19:32:19;;;;;;;;;;;;;;;1.77;100.00;100025.14;1782003;79;20476;-64
2021/11/24 19:34:43;;;;;;;;;;;;;;;1.77;100.00;100031.24;1780823;80;20188;-63
2021/11/24 19:37:10;;;;;;;;;;;;;;;1.77;100.00;100029.92;1779480;80;21107;-63
2021/11/24 19:39:37;;;;;;;;;;;;;;;1.77;100.00;100024.63;1773984;80;20155;-61
2021/11/24 19:42:05;;;;;;;;;;;;;;;1.75;100.00;100020.02;1770018;80;20207;-63
2021/11/24 19:44:32;;;;;;;;;;;;;;;1.77;100.00;100016.69;1733054;82;20523;-63
2021/11/24 19:46:58;;;;;;;;;;;;;;;1.75;100.00;100014.72;1744395;82;20139;-61
2021/11/24 19:49:25;;;;;;;;;;;;;;;1.74;100.00;100014.89;1738579;82;21133;-63
2021/11/24 19:51:51;;;;;;;;;;;;;;;1.75;100.00;100016.05;1734207;81;20066;-61
2021/11/24 19:54:18;;;;;;;;;;;;;;;1.76;100.00;100010.24;1738033;82;20147;-61
2021/11/24 19:56:44;;;;;;;;;;;;;;;1.75;100.00;100016.05;1735594;80;20353;-61
2021/11/24 19:59:11;;;;;;;;;;;;;;;1.76;100.00;100011.06;1744210;82;20099;-61
2021/11/24 20:01:38;;;;;;;;;;;;;;;1.76;100.00;100018.18;1744256;81;21092;-61
2021/11/24 20:04:04;;;;;;;;;;;;;;;1.73;100.00;100017.23;1748627;80;20093;-61
2021/11/24 20:06:31;;;;;;;;;;;;;;;1.74;100.00;100017.54;1745757;80;20174;-62
2021/11/24 20:08:58;;;;;;;;;;;;;;;1.76;100.00;100020.83;1730787;80;20079;-61
2021/11/24 20:11:25;;;;;;;;;;;;;;;1.74;100.00;100029.45;1705438;84;20193;-61
2021/11/24 20:13:52;;;;;;;;;;;;;;;1.76;100.00;100034.06;1704324;82;21081;-61
2021/11/24 20:16:19;;;;;;;;;;;;;;;1.76;100.00;100027.45;1693408;85;20112;-61
2021/11/24 20:18:47;;;;;;;;;;;;;;;1.77;100.00;100029.11;1694901;84;20109;-62
2021/11/24 20:21:14;;;;;;;;;;;;;;;1.76;100.00;100027.45;1704925;84;20122;-61
2021/11/24 20:23:40;;;;;;;;;;;;;;;1.75;100.00;100025.31;1709162;84;20162;-62
2021/11/24 20:26:07;;;;;;;;;;;;;;;1.73;100.00;100010.11;1709678;83;21125;-63
2021/11/24 20:28:34;;;;;;;;;;;;;;;1.73;100.00;100007.97;1691676;84;20137;-62
2021/11/24 20:31:01;;;;;;;;;;;;;;;1.73;100.00;100015.91;1707205;84;20125;-62
2021/11/24 20:33:28;;;;;;;;;;;;;;;1.69;100.00;100018.09;1707443;83;20121;-62
2021/11/24 20:35:54;;;;;;;;;;;;;;;1.69;100.00;100010.16;1705038;82;20544;-62
2021/11/24 20:38:21;;;;;;;;;;;;;;;1.69;100.00;100016.77;1708592;83;21151;-62
2021/11/24 20:40:47;;;;;;;;;;;;;;;1.67;100.00;100015.65;1703199;83;20122;-62
2021/11/24 20:43:15;;;;;;;;;;;;;;;1.66;100.00;100010.53;1706758;84;20212;-63
2021/11/24 20:45:42;;;;;;;;;;;;;;;1.68;100.00;100013.31;1700641;83;20609;-61
2021/11/24 20:48:10;;;;;;;;;;;;;;;1.67;100.00;100007.70;1704111;82;20121;-63
2021/11/24 20:50:37;;;;;;;;;;;;;;;1.68;100.00;100010.66;1703489;83;21184;-62
2021/11/24 20:53:04;;;;;;;;;;;;;;;1.67;100.00;100013.00;1707286;83;20118;-65
2021/11/24 20:55:31;;;;;;;;;;;;;;;1.66;100.00;100016.63;1709887;83;20416;-63
2021/11/24 20:57:58;;;;;;;;;;;;;;;1.64;100.00;100015.18;1703771;84;20175;-65
2021/11/24 21:00:25;;;;;;;;;;;;;;;1.67;100.00;100011.68;1705089;83;20145;-65
2021/11/24 21:02:52;;;;;;;;;;;;;;;1.68;100.00;100009.84;1698382;83;21090;-63
2021/11/24 21:05:18;;;;;;;;;;;;;;;1.67;100.00;100006.39;1701360;83;20120;-63
2021/11/24 21:07:46;;;;;;;;;;;;;;;1.67;100.00;100005.57;1707711;84;20082;-67
2021/11/24 21:10:13;;;;;;;;;;;;;;;1.68;100.00;100009.84;1704468;83;20094;-62
2021/11/24 21:12:40;;;;;;;;;;;;;;;1.65;100.00;100009.72;1709707;82;20170;-64
2021/11/24 21:15:08;;;;;;;;;;;;;;;1.64;100.00;100008.56;1710970;83;21759;-64
2021/11/24 21:17:35;;;;;;;;;;;;;;;1.64;100.00;100013.86;1710044;83;20099;-65
2021/11/24 21:20:03;;;;;;;;;;;;;;;1.59;100.00;100006.47;1701741;83;20114;-63
2021/11/24 21:22:33;;;;;;;;;;;;;;;1.60;100.00;100005.48;1729180;82;20064;-65
2021/11/24 21:24:59;;;;;;;;;;;;;;;1.61;100.00;100014.23;1717039;81;20113;-66
2021/11/24 21:27:26;;;;;;;;;;;;;;;1.57;100.00;100007.18;1736112;82;21092;-65
2021/11/24 21:29:52;;;;;;;;;;;;;;;1.57;100.00;100009.83;1719965;82;20417;-65
2021/11/24 21:32:19;;;;;;;;;;;;;;;1.58;100.00;100011.96;1736270;82;20096;-63
2021/11/24 21:34:46;;;;;;;;;;;;;;;1.58;100.00;100007.99;1735783;82;20103;-63
2021/11/24 21:37:12;;;;;;;;;;;;;;;1.58;100.00;100007.48;1736860;82;20080;-64
2021/11/24 21:39:39;;;;;;;;;;;;;;;1.58;100.00;100006.67;1736242;82;21831;-64
2021/11/24 21:42:10;;;;;;;;;;;;;;;1.59;100.00;100003.01;1736175;82;20108;-64
2021/11/24 21:44:38;;;;;;;;;;;;;;;1.55;100.00;100008.37;1736739;82;20123;-63
2021/11/24 21:47:05;;;;;;;;;;;;;;;1.54;100.00;100008.84;1735898;82;20080;-63
2021/11/24 21:49:32;;;;;;;;;;;;;;;1.54;100.00;100013.33;1736397;82;20111;-62
2021/11/24 21:52:00;;;;;;;;;;;;;;;1.55;100.00;100012.34;1735755;82;20558;-64
2021/11/24 21:54:26;;;;;;;;;;;;;;;1.54;100.00;100009.35;1735540;81;20128;-63
2021/11/24 21:56:53;;;;;;;;;;;;;;;1.54;100.00;100012.81;1736703;82;20115;-63
2021/11/24 21:59:20;;;;;;;;;;;;;;;1.54;100.00;100008.03;1736705;82;20336;-62
2021/11/24 22:01:47;;;;;;;;;;;;;;;1.55;100.00;100007.86;1736776;82;20107;-63
2021/11/24 22:04:13;;;;;;;;;;;;;;;1.53;100.00;100001.92;1736593;82;21134;-63
2021/11/24 22:12:11;;;;;;;;;;;;;;;1.56;100.00;100006.03;1750210;80;20114;-63
2021/11/24 22:14:39;;;;;;;;;;;;;;;1.55;100.00;99998.60;1755433;82;20074;-64
2021/11/24 22:17:08;;;;;;;;;;;;;;;1.54;100.00;99996.13;1750361;81;21009;-64
2021/11/24 22:19:35;;;;;;;;;;;;;;;1.52;100.00;99988.87;1755833;82;20079;-63
2021/11/24 22:22:01;;;;;;;;;;;;;;;1.54;100.00;99995.62;1755673;81;20078;-63
2021/11/24 22:24:28;;;;;;;;;;;;;;;1.53;100.00;99991.34;1755410;82;20074;-62
2021/11/24 22:26:56;;;;;;;;;;;;;;;1.56;100.00;99987.00;1755714;82;20094;-62
2021/11/24 22:29:22;;;;;;;;;;;;;;;1.54;100.00;99994.30;1754281;82;21081;-64
2021/11/24 22:31:49;;;;;;;;;;;;;;;1.55;100.00;99987.20;1753784;82;20095;-63
2021/11/24 22:34:16;;;;;;;;;;;;;;;1.56;100.00;99990.16;1754085;82;20421;-63
2021/11/24 22:36:44;;;;;;;;;;;;;;;1.56;100.00;99991.48;1754090;82;20133;-63
2021/11/24 22:39:11;;;;;;;;;;;;;;;1.57;100.00;99992.63;1724244;82;20094;-62
2021/11/24 22:41:38;;;;;;;;;;;;;;;1.57;100.00;99991.30;1753894;82;21120;-62
2021/11/24 22:44:05;;;;;;;;;;;;;;;1.58;100.00;99988.96;1754203;80;20106;-62
2021/11/24 22:46:31;;;;;;;;;;;;;;;1.59;100.00;99985.30;1731881;83;20181;-62
2021/11/24 22:48:59;;;;;;;;;;;;;;;1.60;100.00;99985.63;1732021;83;20430;-62
2021/11/24 22:51:25;;;;;;;;;;;;;;;1.61;100.00;99979.33;1731988;83;20121;-62
2021/11/24 22:53:52;;;;;;;;;;;;;;;1.59;100.00;99980.01;1731553;83;21100;-63
2021/11/24 22:56:19;;;;;;;;;;;;;;;1.62;100.00;99976.20;1730555;83;20473;-62
2021/11/24 22:58:46;;;;;;;;;;;;;;;1.59;100.00;99978.69;1723329;82;20087;-63
2021/11/24 23:01:12;;;;;;;;;;;;;;;1.58;100.00;99982.86;1730902;83;20097;-62
2021/11/24 23:03:41;;;;;;;;;;;;;;;1.58;100.00;99988.96;1753323;81;20091;-62
2021/11/24 23:06:08;;;;;;;;;;;;;;;1.56;100.00;99984.35;1757512;81;21130;-62
2021/11/24 23:08:35;;;;;;;;;;;;;;;1.57;100.00;99979.40;1731044;83;20372;-63